Main page
METAR-TAF:

METAR-TAF

Airports :

Abdelhafid Boussouf Bou Chekif Airport

Tiaret, Algeria

latitude: 35-15N, longitude: 001-26E, elevation: 1127 m

Current weather observation

The report was made 40 minutes ago, at 06:00 UTC
Wind 7 kt from the Southwest
Temperature 9°C
Humidity 61%
Pressure 1012 hPa
Visibility 10 km or more
Few clouds at a height of 3000 ft

METAR: DAOB 080600Z 23007KT 9999 FEW030 09/02 Q1012

Time: 07:40 (06:40 UTC)

Forecast

The report was made 1 hour and 40 minutes ago, at 05:00 UTC
Forecast valid from 08 at 06 UTC to 09 at 06 UTC
Wind 12 kt from the Southwest
Visibility 10 km or more
no clouds below 1500 m and no cumulonimbus

TAF: DAOB 080500Z 0806/0906 22012KT CAVOK

Weather observations and forecasts of more than 4000 airports (METAR and TAF reports).

The available stations are represented by yellow and red dots on the map.

Hover mouse over dot to see the name of the station.

Then click to see weather observations and forecasts.

To change the map : click on the green buttons with a black cross to zoom in, on the green button with a dash to zoom out, or on the green arrows for adjacent maps.


METAR-TAF: